sensor_id;sensor_type;location;lat;lon;timestamp;pressure;altitude;pressure_sealevel;temperature;humidity
42001;BME280;27689;48.390;10.856;2024-01-15T00:01:53;94998.44;;;-2.09;100.00
42001;BME280;27689;48.390;10.856;2024-01-15T00:04:40;94987.72;;;-2.16;100.00
42001;BME280;27689;48.390;10.856;2024-01-15T00:07:24;94975.72;;;-2.15;100.00
42001;BME280;27689;48.390;10.856;2024-01-15T00:10:08;94975.41;;;-2.23;100.00
42001;BME280;27689;48.390;10.856;2024-01-15T00:12:52;94969.41;;;-2.36;100.00
42001;BME280;27689;48.390;10.856;2024-01-15T00:15:36;94977.03;;;-2.22;100.00
42001;BME280;27689;48.390;10.856;2024-01-15T00:18:19;94970.88;;;-2.20;100.00
42001;BME280;27689;48.390;10.856;2024-01-15T00:21:04;94972.22;;;-2.27;100.00
42001;BME280;27689;48.390;10.856;2024-01-15T00:23:47;94973.16;;;-2.15;100.00
42001;BME280;27689;48.390;10.856;2024-01-15T00:26:32;94981.38;;;-2.23;100.00
42001;BME280;27689;48.390;10.856;2024-01-15T00:29:15;94973.97;;;-2.27;100.00
42001;BME280;27689;48.390;10.856;2024-01-15T00:31:59;94981.09;;;-2.32;100.00
42001;BME280;27689;48.390;10.856;2024-01-15T00:34:43;94973.28;;;-2.43;100.00
42001;BME280;27689;48.390;10.856;2024-01-15T00:37:27;94980.19;;;-2.31;100.00
42001;BME280;27689;48.390;10.856;2024-01-15T00:40:11;94983.13;;;-2.37;100.00
42001;BME280;27689;48.390;10.856;2024-01-15T00:42:55;94972.59;;;-2.33;100.00
42001;BME280;27689;48.390;10.856;2024-01-15T00:45:39;94971.44;;;-2.41;100.00
42001;BME280;27689;48.390;10.856;2024-01-15T00:48:22;94970.91;;;-2.46;100.00
42001;BME280;27689;48.390;10.856;2024-01-15T00:51:06;94971.88;;;-2.62;100.00
42001;BME280;27689;48.390;10.856;2024-01-15T00:53:50;94962.72;;;-2.66;100.00
42001;BME280;27689;48.390;10.856;2024-01-15T00:56:34;94965.09;;;-2.63;100.00
42001;BME280;27689;48.390;10.856;2024-01-15T00:59:18;94969.75;;;-2.55;100.00
42001;BME280;27689;48.390;10.856;2024-01-15T01:02:04;94952.09;;;-2.60;100.00
42001;BME280;27689;48.390;10.856;2024-01-15T01:04:48;94972.03;;;-2.65;100.00
42001;BME280;27689;48.390;10.856;2024-01-15T01:07:32;94972.72;;;-2.75;100.00
42001;BME280;27689;48.390;10.856;2024-01-15T01:10:16;94977.28;;;-2.66;100.00
42001;BME280;27689;48.390;10.856;2024-01-15T01:13:00;94977.72;;;-2.60;100.00
42001;BME280;27689;48.390;10.856;2024-01-15T01:15:44;94973.13;;;-2.55;100.00
42001;BME280;27689;48.390;10.856;2024-01-15T01:18:28;94978.63;;;-2.61;100.00
42001;BME280;27689;48.390;10.856;2024-01-15T01:21:12;94971.78;;;-2.60;100.00
42001;BME280;27689;48.390;10.856;2024-01-15T01:23:56;94961.25;;;-2.56;100.00
42001;BME280;27689;48.390;10.856;2024-01-15T01:26:40;94975.78;;;-2.56;100.00
42001;BME280;27689;48.390;10.856;2024-01-15T01:29:24;94975.78;;;-2.56;100.00
42001;BME280;27689;48.390;10.856;2024-01-15T01:32:08;94967.91;;;-2.53;100.00
42001;BME280;27689;48.390;10.856;2024-01-15T01:34:51;94971.81;;;-2.47;100.00
42001;BME280;27689;48.390;10.856;2024-01-15T01:37:35;94965.97;;;-2.50;100.00
42001;BME280;27689;48.390;10.856;2024-01-15T01:40:19;94977.69;;;-2.45;100.00
42001;BME280;27689;48.390;10.856;2024-01-15T01:43:08;94970.75;;;-2.58;100.00
42001;BME280;27689;48.390;10.856;2024-01-15T01:45:52;94979.94;;;-2.68;100.00
42001;BME280;27689;48.390;10.856;2024-01-15T01:48:36;94973.88;;;-2.67;100.00
42001;BME280;27689;48.390;10.856;2024-01-15T01:51:20;94979.28;;;-2.57;100.00
42001;BME280;27689;48.390;10.856;2024-01-15T01:54:05;94965.34;;;-2.53;100.00
42001;BME280;27689;48.390;10.856;2024-01-15T01:56:50;94957.53;;;-2.52;100.00
42001;BME280;27689;48.390;10.856;2024-01-15T01:59:35;94960.75;;;-2.48;100.00
42001;BME280;27689;48.390;10.856;2024-01-15T02:02:19;94958.22;;;-2.35;100.00
42001;BME280;27689;48.390;10.856;2024-01-15T02:05:04;94955.47;;;-2.32;100.00
42001;BME280;27689;48.390;10.856;2024-01-15T02:07:48;94955.09;;;-2.26;99.56
42001;BME280;27689;48.390;10.856;2024-01-15T02:10:32;94951.44;;;-2.36;100.00
42001;BME280;27689;48.390;10.856;2024-01-15T02:13:17;94952.28;;;-2.36;99.80
42001;BME280;27689;48.390;10.856;2024-01-15T02:16:01;94951.25;;;-2.33;100.00
42001;BME280;27689;48.390;10.856;2024-01-15T02:18:45;94951.88;;;-2.30;99.70
42001;BME280;27689;48.390;10.856;2024-01-15T02:21:31;94951.50;;;-2.24;98.98
42001;BME280;27689;48.390;10.856;2024-01-15T02:24:15;94947.91;;;-2.21;98.84
42001;BME280;27689;48.390;10.856;2024-01-15T02:26:58;94955.72;;;-2.23;98.67
42001;BME280;27689;48.390;10.856;2024-01-15T02:29:43;94961.03;;;-2.26;99.32
42001;BME280;27689;48.390;10.856;2024-01-15T02:32:27;94962.16;;;-2.30;99.13
42001;BME280;27689;48.390;10.856;2024-01-15T02:35:11;94973.78;;;-2.24;99.16
42001;BME280;27689;48.390;10.856;2024-01-15T02:37:55;94967.13;;;-2.14;98.69
42001;BME280;27689;48.390;10.856;2024-01-15T02:40:39;94962.19;;;-2.17;98.49
42001;BME280;27689;48.390;10.856;2024-01-15T02:43:22;94962.78;;;-2.26;99.01
42001;BME280;27689;48.390;10.856;2024-01-15T02:46:06;94953.84;;;-2.21;98.40
42001;BME280;27689;48.390;10.856;2024-01-15T02:48:50;94960.63;;;-2.20;98.62
42001;BME280;27689;48.390;10.856;2024-01-15T02:51:34;94957.09;;;-2.31;98.88
42001;BME280;27689;48.390;10.856;2024-01-15T02:54:18;94964.84;;;-2.19;98.46
42001;BME280;27689;48.390;10.856;2024-01-15T02:57:02;94972.25;;;-2.14;98.28
42001;BME280;27689;48.390;10.856;2024-01-15T02:59:46;94975.59;;;-2.26;98.72
42001;BME280;27689;48.390;10.856;2024-01-15T03:02:30;94976.34;;;-2.24;99.17
42001;BME280;27689;48.390;10.856;2024-01-15T03:05:14;94980.91;;;-2.29;99.13
42001;BME280;27689;48.390;10.856;2024-01-15T03:07:58;94986.34;;;-2.34;99.39
42001;BME280;27689;48.390;10.856;2024-01-15T03:10:42;94977.91;;;-2.36;99.40
42001;BME280;27689;48.390;10.856;2024-01-15T03:13:26;94978.94;;;-2.38;99.52
42001;BME280;27689;48.390;10.856;2024-01-15T03:16:10;94968.44;;;-2.48;100.00
42001;BME280;27689;48.390;10.856;2024-01-15T03:18:54;94972.81;;;-2.50;100.00
42001;BME280;27689;48.390;10.856;2024-01-15T03:21:38;94966.41;;;-2.43;99.84
42001;BME280;27689;48.390;10.856;2024-01-15T03:24:22;94967.97;;;-2.40;99.36
42001;BME280;27689;48.390;10.856;2024-01-15T03:27:06;94967.13;;;-2.41;99.60
42001;BME280;27689;48.390;10.856;2024-01-15T03:29:50;94964.75;;;-2.44;99.59
42001;BME280;27689;48.390;10.856;2024-01-15T03:32:34;94976.56;;;-2.41;98.91
42001;BME280;27689;48.390;10.856;2024-01-15T03:35:17;94971.34;;;-2.40;98.90
42001;BME280;27689;48.390;10.856;2024-01-15T03:38:01;94969.34;;;-2.49;99.53
42001;BME280;27689;48.390;10.856;2024-01-15T03:40:45;94964.66;;;-2.42;98.98
42001;BME280;27689;48.390;10.856;2024-01-15T03:43:30;94962.09;;;-2.42;99.22
42001;BME280;27689;48.390;10.856;2024-01-15T03:46:14;94961.19;;;-2.41;98.94
42001;BME280;27689;48.390;10.856;2024-01-15T03:48:58;94968.19;;;-2.58;100.00
42001;BME280;27689;48.390;10.856;2024-01-15T03:51:42;94971.31;;;-2.53;99.80
42001;BME280;27689;48.390;10.856;2024-01-15T03:54:26;94969.84;;;-2.57;99.91
42001;BME280;27689;48.390;10.856;2024-01-15T03:57:10;94962.19;;;-2.44;98.89
42001;BME280;27689;48.390;10.856;2024-01-15T03:59:54;94963.22;;;-2.46;98.99
42001;BME280;27689;48.390;10.856;2024-01-15T04:02:38;94961.34;;;-2.57;99.49
42001;BME280;27689;48.390;10.856;2024-01-15T04:05:22;94963.34;;;-2.62;99.77
42001;BME280;27689;48.390;10.856;2024-01-15T04:08:06;94961.06;;;-2.53;99.58
42001;BME280;27689;48.390;10.856;2024-01-15T04:10:50;94965.88;;;-2.48;99.35
42001;BME280;27689;48.390;10.856;2024-01-15T04:13:34;94968.16;;;-2.43;99.07
42001;BME280;27689;48.390;10.856;2024-01-15T04:16:18;94960.66;;;-2.46;98.88
42001;BME280;27689;48.390;10.856;2024-01-15T04:19:02;94956.06;;;-2.41;98.93
42001;BME280;27689;48.390;10.856;2024-01-15T04:21:46;94955.88;;;-2.38;98.61
42001;BME280;27689;48.390;10.856;2024-01-15T04:24:31;94956.06;;;-2.41;98.68
42001;BME280;27689;48.390;10.856;2024-01-15T04:27:15;94948.78;;;-2.35;98.80
42001;BME280;27689;48.390;10.856;2024-01-15T04:29:59;94951.44;;;-2.36;98.69
42001;BME280;27689;48.390;10.856;2024-01-15T04:32:43;94953.81;;;-2.33;98.16
42001;BME280;27689;48.390;10.856;2024-01-15T04:35:27;94953.72;;;-2.32;98.80
42001;BME280;27689;48.390;10.856;2024-01-15T04:38:11;94961.50;;;-2.33;98.61
42001;BME280;27689;48.390;10.856;2024-01-15T04:40:55;94964.47;;;-2.39;99.41
42001;BME280;27689;48.390;10.856;2024-01-15T04:43:38;94962.75;;;-2.39;99.27
42001;BME280;27689;48.390;10.856;2024-01-15T04:46:22;94957.09;;;-2.31;99.33
42001;BME280;27689;48.390;10.856;2024-01-15T04:49:06;94964.84;;;-2.19;98.70
42001;BME280;27689;48.390;10.856;2024-01-15T04:51:50;94966.28;;;-2.15;98.15
42001;BME280;27689;48.390;10.856;2024-01-15T04:54:34;94954.09;;;-2.11;98.20
42001;BME280;27689;48.390;10.856;2024-01-15T04:57:18;94958.09;;;-2.07;97.39
42001;BME280;27689;48.390;10.856;2024-01-15T05:00:02;94955.34;;;-2.04;97.56
42001;BME280;27689;48.390;10.856;2024-01-15T05:02:47;94947.00;;;-2.07;97.77
42001;BME280;27689;48.390;10.856;2024-01-15T05:05:30;94958.91;;;-2.06;97.37
42001;BME280;27689;48.390;10.856;2024-01-15T05:08:14;94945.81;;;-1.89;96.63
42001;BME280;27689;48.390;10.856;2024-01-15T05:10:58;94946.16;;;-1.81;95.35
42001;BME280;27689;48.390;10.856;2024-01-15T05:13:42;94938.13;;;-1.77;94.84
42001;BME280;27689;48.390;10.856;2024-01-15T05:16:26;94933.81;;;-1.76;94.14
42001;BME280;27689;48.390;10.856;2024-01-15T05:19:10;94931.34;;;-1.78;94.45
42001;BME280;27689;48.390;10.856;2024-01-15T05:21:54;94937.00;;;-1.72;94.19
42001;BME280;27689;48.390;10.856;2024-01-15T05:24:38;94934.63;;;-1.75;94.09
42001;BME280;27689;48.390;10.856;2024-01-15T05:27:22;94934.44;;;-1.85;94.66
42001;BME280;27689;48.390;10.856;2024-01-15T05:30:06;94933.59;;;-1.86;94.40
42001;BME280;27689;48.390;10.856;2024-01-15T05:32:50;94931.75;;;-1.84;93.72
42001;BME280;27689;48.390;10.856;2024-01-15T05:35:34;94940.28;;;-1.83;93.91
42001;BME280;27689;48.390;10.856;2024-01-15T05:38:18;94944.38;;;-1.93;94.54
42001;BME280;27689;48.390;10.856;2024-01-15T05:41:02;94948.91;;;-1.97;95.08
42001;BME280;27689;48.390;10.856;2024-01-15T05:43:46;94941.09;;;-1.95;94.57
42001;BME280;27689;48.390;10.856;2024-01-15T05:46:30;94938.22;;;-1.91;94.57
42001;BME280;27689;48.390;10.856;2024-01-15T05:49:14;94941.81;;;-1.93;94.04
42001;BME280;27689;48.390;10.856;2024-01-15T05:51:58;94937.81;;;-1.97;94.35
42001;BME280;27689;48.390;10.856;2024-01-15T05:54:42;94934.81;;;-2.04;94.65
42001;BME280;27689;48.390;10.856;2024-01-15T05:57:26;94939.84;;;-2.02;95.15
42001;BME280;27689;48.390;10.856;2024-01-15T06:00:10;94938.63;;;-1.97;94.27
42001;BME280;27689;48.390;10.856;2024-01-15T06:02:54;94935.16;;;-1.96;94.91
42001;BME280;27689;48.390;10.856;2024-01-15T06:05:38;94935.25;;;-1.85;94.22
42001;BME280;27689;48.390;10.856;2024-01-15T06:08:23;94939.75;;;-1.88;93.84
42001;BME280;27689;48.390;10.856;2024-01-15T06:11:07;94933.91;;;-1.90;94.40
42001;BME280;27689;48.390;10.856;2024-01-15T06:13:51;94937.81;;;-1.85;94.01
42001;BME280;27689;48.390;10.856;2024-01-15T06:16:36;94933.09;;;-1.78;93.83
42001;BME280;27689;48.390;10.856;2024-01-15T06:19:19;94934.34;;;-1.84;94.57
42001;BME280;27689;48.390;10.856;2024-01-15T06:22:03;94931.97;;;-1.87;94.91
42001;BME280;27689;48.390;10.856;2024-01-15T06:24:47;94935.56;;;-1.77;94.87
42001;BME280;27689;48.390;10.856;2024-01-15T06:27:31;94936.72;;;-1.68;93.86
42001;BME280;27689;48.390;10.856;2024-01-15T06:30:15;94928.72;;;-1.63;92.78
42001;BME280;27689;48.390;10.856;2024-01-15T06:32:59;94925.91;;;-1.48;92.71
42001;BME280;27689;48.390;10.856;2024-01-15T06:35:43;94931.88;;;-1.60;93.35
42001;BME280;27689;48.390;10.856;2024-01-15T06:38:27;94922.50;;;-1.48;92.47
42001;BME280;27689;48.390;10.856;2024-01-15T06:41:11;94933.22;;;-1.54;92.89
42001;BME280;27689;48.390;10.856;2024-01-15T06:43:55;94926.53;;;-1.44;92.34
42001;BME280;27689;48.390;10.856;2024-01-15T06:46:42;94935.59;;;-1.51;93.09
42001;BME280;27689;48.390;10.856;2024-01-15T06:49:27;94930.63;;;-1.42;92.97
42001;BME280;27689;48.390;10.856;2024-01-15T06:52:10;94927.31;;;-1.31;92.42
42001;BME280;27689;48.390;10.856;2024-01-15T06:54:55;94925.28;;;-1.26;92.19
42001;BME280;27689;48.390;10.856;2024-01-15T06:57:39;94923.81;;;-1.17;92.52
42001;BME280;27689;48.390;10.856;2024-01-15T07:00:23;94904.31;;;-1.20;93.12
42001;BME280;27689;48.390;10.856;2024-01-15T07:03:07;94912.13;;;-1.21;93.28
42001;BME280;27689;48.390;10.856;2024-01-15T07:05:51;94902.22;;;-1.15;93.18
42001;BME280;27689;48.390;10.856;2024-01-15T07:08:35;94908.16;;;-1.01;93.24
42001;BME280;27689;48.390;10.856;2024-01-15T07:11:19;94899.41;;;-0.99;92.82
42001;BME280;27689;48.390;10.856;2024-01-15T07:14:03;94891.59;;;-0.97;93.23
42001;BME280;27689;48.390;10.856;2024-01-15T07:16:47;94889.84;;;-0.97;93.00
42001;BME280;27689;48.390;10.856;2024-01-15T07:19:31;94887.69;;;-0.90;91.94
42001;BME280;27689;48.390;10.856;2024-01-15T07:22:15;94898.97;;;-0.80;91.75
42001;BME280;27689;48.390;10.856;2024-01-15T07:25:01;94903.19;;;-0.79;91.74
42001;BME280;27689;48.390;10.856;2024-01-15T07:27:45;94904.00;;;-0.79;91.42
42001;BME280;27689;48.390;10.856;2024-01-15T07:30:29;94901.75;;;-0.83;90.82
42001;BME280;27689;48.390;10.856;2024-01-15T07:33:13;94901.94;;;-0.86;91.74
42001;BME280;27689;48.390;10.856;2024-01-15T07:35:57;94902.25;;;-0.78;91.58
42001;BME280;27689;48.390;10.856;2024-01-15T07:38:41;94908.41;;;-0.81;90.85
42001;BME280;27689;48.390;10.856;2024-01-15T07:41:25;94915.09;;;-0.78;91.35
42001;BME280;27689;48.390;10.856;2024-01-15T07:44:09;94905.63;;;-0.78;90.23
42001;BME280;27689;48.390;10.856;2024-01-15T07:46:53;94904.38;;;-0.72;89.21
42001;BME280;27689;48.390;10.856;2024-01-15T07:49:36;94906.22;;;-0.74;89.11
42001;BME280;27689;48.390;10.856;2024-01-15T07:52:20;94913.31;;;-0.65;87.76
42001;BME280;27689;48.390;10.856;2024-01-15T07:55:04;94910.84;;;-0.66;87.80
42001;BME280;27689;48.390;10.856;2024-01-15T07:57:49;94907.03;;;-0.61;86.47
42001;BME280;27689;48.390;10.856;2024-01-15T08:00:33;94913.56;;;-0.57;87.10
42001;BME280;27689;48.390;10.856;2024-01-15T08:03:17;94902.63;;;-0.48;84.65
42001;BME280;27689;48.390;10.856;2024-01-15T08:06:01;94903.00;;;-0.41;83.88
42001;BME280;27689;48.390;10.856;2024-01-15T08:08:45;94898.03;;;-0.31;84.08
42001;BME280;27689;48.390;10.856;2024-01-15T08:11:29;94903.31;;;-0.22;82.85
42001;BME280;27689;48.390;10.856;2024-01-15T08:14:13;94884.56;;;-0.35;83.38
42001;BME280;27689;48.390;10.856;2024-01-15T08:16:57;94894.56;;;-0.19;83.25
42001;BME280;27689;48.390;10.856;2024-01-15T08:19:41;94901.00;;;-0.14;82.81
42001;BME280;27689;48.390;10.856;2024-01-15T08:22:25;94902.19;;;-0.07;82.88
42001;BME280;27689;48.390;10.856;2024-01-15T08:25:09;94904.88;;;-0.08;83.94
42001;BME280;27689;48.390;10.856;2024-01-15T08:27:53;94893.28;;;-0.14;84.15
42001;BME280;27689;48.390;10.856;2024-01-15T08:30:37;94909.00;;;-0.06;84.22
42001;BME280;27689;48.390;10.856;2024-01-15T08:33:20;94917.75;;;-0.08;84.19
42001;BME280;27689;48.390;10.856;2024-01-15T08:36:05;94906.81;;;-0.23;84.26
42001;BME280;27689;48.390;10.856;2024-01-15T08:38:49;94903.44;;;-0.23;84.90
42001;BME280;27689;48.390;10.856;2024-01-15T08:41:33;94904.50;;;-0.15;85.04
42001;BME280;27689;48.390;10.856;2024-01-15T08:44:17;94913.09;;;-0.03;84.69
42001;BME280;27689;48.390;10.856;2024-01-15T08:47:01;94916.50;;;-0.03;83.63
42001;BME280;27689;48.390;10.856;2024-01-15T08:49:46;94919.06;;;-0.03;83.98
42001;BME280;27689;48.390;10.856;2024-01-15T08:52:30;94911.25;;;-0.01;84.05
42001;BME280;27689;48.390;10.856;2024-01-15T08:55:14;94915.47;;;0.11;81.47
42001;BME280;27689;48.390;10.856;2024-01-15T08:57:58;94908.69;;;0.10;79.79
42001;BME280;27689;48.390;10.856;2024-01-15T09:00:42;94905.19;;;0.11;79.79
42001;BME280;27689;48.390;10.856;2024-01-15T09:03:25;94906.81;;;0.12;77.62
42001;BME280;27689;48.390;10.856;2024-01-15T09:06:10;94906.34;;;0.18;77.26
42001;BME280;27689;48.390;10.856;2024-01-15T09:08:54;94904.97;;;0.14;76.68
42001;BME280;27689;48.390;10.856;2024-01-15T09:11:38;94911.06;;;0.24;76.60
42001;BME280;27689;48.390;10.856;2024-01-15T09:14:22;94911.88;;;0.25;77.79
42001;BME280;27689;48.390;10.856;2024-01-15T09:17:07;94911.66;;;0.28;76.63
42001;BME280;27689;48.390;10.856;2024-01-15T09:19:51;94913.31;;;0.29;76.81
42001;BME280;27689;48.390;10.856;2024-01-15T09:22:35;94913.66;;;0.35;75.81
42001;BME280;27689;48.390;10.856;2024-01-15T09:25:19;94902.31;;;0.38;76.04
42001;BME280;27689;48.390;10.856;2024-01-15T09:28:03;94899.28;;;0.44;75.41
42001;BME280;27689;48.390;10.856;2024-01-15T09:30:47;94899.38;;;0.43;75.25
42001;BME280;27689;48.390;10.856;2024-01-15T09:33:31;94884.28;;;0.49;75.25
42001;BME280;27689;48.390;10.856;2024-01-15T09:36:15;94889.56;;;0.59;74.92
42001;BME280;27689;48.390;10.856;2024-01-15T09:38:59;94882.19;;;0.54;74.98
42001;BME280;27689;48.390;10.856;2024-01-15T09:41:42;94880.63;;;0.63;73.61
42001;BME280;27689;48.390;10.856;2024-01-15T09:44:26;94879.47;;;0.67;72.69
42001;BME280;27689;48.390;10.856;2024-01-15T09:47:10;94872.91;;;0.63;71.60
42001;BME280;27689;48.390;10.856;2024-01-15T09:49:56;94857.94;;;0.68;72.86
42001;BME280;27689;48.390;10.856;2024-01-15T09:52:42;94858.88;;;0.56;71.07
42001;BME280;27689;48.390;10.856;2024-01-15T09:55:27;94853.81;;;0.65;71.04
42001;BME280;27689;48.390;10.856;2024-01-15T09:58:11;94858.84;;;0.78;70.84
42001;BME280;27689;48.390;10.856;2024-01-15T10:00:56;94853.00;;;0.87;71.06
42001;BME280;27689;48.390;10.856;2024-01-15T10:03:40;94849.81;;;0.95;69.93
42001;BME280;27689;48.390;10.856;2024-01-15T10:06:25;94847.94;;;0.97;70.78
42001;BME280;27689;48.390;10.856;2024-01-15T10:09:14;94831.03;;;1.15;71.53
42001;BME280;27689;48.390;10.856;2024-01-15T10:11:58;94823.81;;;1.30;70.88
42001;BME280;27689;48.390;10.856;2024-01-15T10:14:42;94832.34;;;1.41;69.68
42001;BME280;27689;48.390;10.856;2024-01-15T10:17:27;94826.88;;;1.56;68.41
42001;BME280;27689;48.390;10.856;2024-01-15T10:20:11;94829.53;;;1.65;67.92
42001;BME280;27689;48.390;10.856;2024-01-15T10:22:55;94838.66;;;1.69;68.34
42001;BME280;27689;48.390;10.856;2024-01-15T10:25:41;94830.53;;;1.95;68.14
42001;BME280;27689;48.390;10.856;2024-01-15T10:28:28;94832.50;;;2.02;66.35
42001;BME280;27689;48.390;10.856;2024-01-15T10:31:14;94833.19;;;2.25;65.69
42001;BME280;27689;48.390;10.856;2024-01-15T10:34:13;94830.38;;;2.38;65.83
42001;BME280;27689;48.390;10.856;2024-01-15T10:36:59;94825.41;;;2.46;64.75
42001;BME280;27689;48.390;10.856;2024-01-15T10:39:43;94828.97;;;2.24;64.56
42001;BME280;27689;48.390;10.856;2024-01-15T10:42:27;94824.00;;;2.11;65.18
42001;BME280;27689;48.390;10.856;2024-01-15T10:45:11;94819.44;;;2.25;66.43
42001;BME280;27689;48.390;10.856;2024-01-15T10:47:55;94825.88;;;2.30;67.04
42001;BME280;27689;48.390;10.856;2024-01-15T10:50:42;94811.81;;;2.23;66.59
42001;BME280;27689;48.390;10.856;2024-01-15T10:53:26;94813.66;;;2.11;66.93
42001;BME280;27689;48.390;10.856;2024-01-15T10:56:10;94804.59;;;2.17;67.10
42001;BME280;27689;48.390;10.856;2024-01-15T10:58:55;94807.94;;;2.08;68.26
42001;BME280;27689;48.390;10.856;2024-01-15T11:01:39;94800.59;;;2.03;68.24
42001;BME280;27689;48.390;10.856;2024-01-15T11:04:24;94806.44;;;2.05;68.63
42001;BME280;27689;48.390;10.856;2024-01-15T11:07:10;94808.75;;;2.08;68.68
42001;BME280;27689;48.390;10.856;2024-01-15T11:09:55;94805.09;;;2.11;67.80
42001;BME280;27689;48.390;10.856;2024-01-15T11:12:40;94809.88;;;2.16;68.77
42001;BME280;27689;48.390;10.856;2024-01-15T11:15:24;94802.72;;;2.19;68.17
42001;BME280;27689;48.390;10.856;2024-01-15T11:18:12;94798.34;;;2.20;66.57
42001;BME280;27689;48.390;10.856;2024-01-15T11:24:02;94790.63;;;1.99;66.25
42001;BME280;27689;48.390;10.856;2024-01-15T11:26:46;94783.25;;;1.94;67.19
42001;BME280;27689;48.390;10.856;2024-01-15T11:29:31;94776.59;;;1.92;66.20
42001;BME280;27689;48.390;10.856;2024-01-15T11:32:15;94766.94;;;1.94;65.57
42001;BME280;27689;48.390;10.856;2024-01-15T11:35:01;94762.75;;;1.93;67.59
42001;BME280;27689;48.390;10.856;2024-01-15T11:40:37;94753.63;;;1.89;68.04
42001;BME280;27689;48.390;10.856;2024-01-15T11:43:26;94754.50;;;2.08;68.16
42001;BME280;27689;48.390;10.856;2024-01-15T11:46:11;94765.53;;;2.10;67.52
42001;BME280;27689;48.390;10.856;2024-01-15T11:48:56;94763.53;;;2.14;68.08
42001;BME280;27689;48.390;10.856;2024-01-15T11:51:46;94773.13;;;2.02;67.82
42001;BME280;27689;48.390;10.856;2024-01-15T11:54:31;94763.22;;;2.07;69.06
42001;BME280;27689;48.390;10.856;2024-01-15T11:57:18;94758.31;;;2.04;69.28
42001;BME280;27689;48.390;10.856;2024-01-15T12:00:06;94761.31;;;2.09;67.98
42001;BME280;27689;48.390;10.856;2024-01-15T12:02:50;94760.06;;;2.04;67.76
42001;BME280;27689;48.390;10.856;2024-01-15T12:05:37;94759.63;;;1.99;67.64
42001;BME280;27689;48.390;10.856;2024-01-15T12:08:22;94758.91;;;1.87;68.38
42001;BME280;27689;48.390;10.856;2024-01-15T12:11:06;94756.00;;;1.81;69.21
42001;BME280;27689;48.390;10.856;2024-01-15T12:13:50;94750.28;;;1.77;70.43
42001;BME280;27689;48.390;10.856;2024-01-15T12:16:37;94747.31;;;1.82;69.99
42001;BME280;27689;48.390;10.856;2024-01-15T12:19:21;94735.78;;;1.86;70.66
42001;BME280;27689;48.390;10.856;2024-01-15T12:22:05;94736.22;;;1.91;70.81
42001;BME280;27689;48.390;10.856;2024-01-15T12:24:49;94722.38;;;1.92;69.85
42001;BME280;27689;48.390;10.856;2024-01-15T12:27:33;94742.38;;;1.99;70.27
42001;BME280;27689;48.390;10.856;2024-01-15T12:30:17;94746.97;;;1.96;70.35
42001;BME280;27689;48.390;10.856;2024-01-15T12:33:01;94743.56;;;1.95;71.13
42001;BME280;27689;48.390;10.856;2024-01-15T12:35:46;94735.94;;;1.94;71.11
42001;BME280;27689;48.390;10.856;2024-01-15T12:38:30;94746.72;;;1.99;71.04
42001;BME280;27689;48.390;10.856;2024-01-15T12:41:15;94753.66;;;1.98;72.29
42001;BME280;27689;48.390;10.856;2024-01-15T12:43:58;94749.88;;;2.02;72.10
42001;BME280;27689;48.390;10.856;2024-01-15T12:46:42;94753.16;;;2.04;72.31
42001;BME280;27689;48.390;10.856;2024-01-15T12:49:26;94750.44;;;2.06;72.33
42001;BME280;27689;48.390;10.856;2024-01-15T12:52:10;94749.56;;;1.96;71.43
42001;BME280;27689;48.390;10.856;2024-01-15T12:54:54;94747.38;;;1.91;71.99
42001;BME280;27689;48.390;10.856;2024-01-15T12:57:38;94755.06;;;1.82;72.37
42001;BME280;27689;48.390;10.856;2024-01-15T13:00:22;94750.09;;;1.69;72.83
42001;BME280;27689;48.390;10.856;2024-01-15T13:03:05;94747.25;;;1.72;73.00
42001;BME280;27689;48.390;10.856;2024-01-15T13:05:50;94745.81;;;1.58;74.00
42001;BME280;27689;48.390;10.856;2024-01-15T13:08:36;94750.47;;;1.64;76.19
42001;BME280;27689;48.390;10.856;2024-01-15T13:11:20;94733.94;;;1.46;77.03
42001;BME280;27689;48.390;10.856;2024-01-15T13:14:04;94741.16;;;1.52;77.59
42001;BME280;27689;48.390;10.856;2024-01-15T13:16:48;94728.91;;;1.45;78.71
42001;BME280;27689;48.390;10.856;2024-01-15T13:19:32;94722.91;;;1.44;78.79
42001;BME280;27689;48.390;10.856;2024-01-15T13:22:16;94724.34;;;1.37;79.08
42001;BME280;27689;48.390;10.856;2024-01-15T13:25:00;94732.06;;;1.48;77.24
42001;BME280;27689;48.390;10.856;2024-01-15T13:27:44;94724.72;;;1.53;77.76
42001;BME280;27689;48.390;10.856;2024-01-15T13:30:27;94730.34;;;1.58;78.54
42001;BME280;27689;48.390;10.856;2024-01-15T13:33:11;94733.81;;;1.48;78.29
42001;BME280;27689;48.390;10.856;2024-01-15T13:35:55;94718.06;;;1.51;78.74
42001;BME280;27689;48.390;10.856;2024-01-15T13:38:39;94710.63;;;1.57;78.83
42001;BME280;27689;48.390;10.856;2024-01-15T13:41:23;94704.56;;;1.68;79.15
42001;BME280;27689;48.390;10.856;2024-01-15T13:44:10;94715.34;;;1.73;78.53
42001;BME280;27689;48.390;10.856;2024-01-15T13:46:54;94715.59;;;1.70;79.50
42001;BME280;27689;48.390;10.856;2024-01-15T13:49:38;94715.72;;;1.68;79.33
42001;BME280;27689;48.390;10.856;2024-01-15T13:52:22;94720.63;;;1.71;79.67
42001;BME280;27689;48.390;10.856;2024-01-15T13:55:07;94716.25;;;1.62;80.53
42001;BME280;27689;48.390;10.856;2024-01-15T13:57:52;94729.31;;;1.50;81.35
42001;BME280;27689;48.390;10.856;2024-01-15T14:00:36;94726.19;;;1.46;83.20
42001;BME280;27689;48.390;10.856;2024-01-15T14:03:20;94728.56;;;1.59;83.09
42001;BME280;27689;48.390;10.856;2024-01-15T14:06:04;94725.53;;;1.54;83.46
42001;BME280;27689;48.390;10.856;2024-01-15T14:08:52;94730.66;;;1.44;84.62
42001;BME280;27689;48.390;10.856;2024-01-15T14:11:36;94736.94;;;1.30;86.43
42001;BME280;27689;48.390;10.856;2024-01-15T14:14:21;94743.63;;;1.33;87.63
42001;BME280;27689;48.390;10.856;2024-01-15T14:17:05;94747.91;;;1.44;88.04
42001;BME280;27689;48.390;10.856;2024-01-15T14:19:49;94755.06;;;1.40;88.21
42001;BME280;27689;48.390;10.856;2024-01-15T14:22:33;94747.56;;;1.37;89.28
42001;BME280;27689;48.390;10.856;2024-01-15T14:25:17;94759.34;;;1.30;90.64
42001;BME280;27689;48.390;10.856;2024-01-15T14:28:01;94758.88;;;1.25;90.57